Time;durP1;ratioP1;P1;durP2;ratioP2;P2;SDS_P1;SDS_P2;PMS_P1;PMS_P2;Temp;Humidity;BMP_temperature;BMP_pressure;BME280_temperature;BME280_humidity;BME280_pressure;Samples;Min_cycle;Max_cycle;Signal;HPM_P1;HPM_P2
2022/02/04 00:07:04;;;;;;;28.97;23.47;;;;;;;;;;4987980;28;20280;-73
2022/02/04 00:20:38;;;;;;;29.57;23.67;;;;;;;;;;4977955;28;20229;-74
2022/02/04 00:28:07;;;;;;;27.03;22.43;;;;;;;;;;4976764;28;20268;-73
2022/02/04 00:30:43;;;;;;;28.10;22.90;;;;;;;;;;4991964;28;20225;-73
2022/02/04 00:33:14;;;;;;;26.43;21.77;;;;;;;;;;4991731;28;20244;-73
2022/02/04 00:38:25;;;;;;;26.93;22.47;;;;;;;;;;4975456;28;20221;-72
2022/02/04 00:40:59;;;;;;;27.37;21.97;;;;;;;;;;4991932;28;20644;-72
2022/02/04 00:43:30;;;;;;;28.17;22.63;;;;;;;;;;4977452;28;20217;-74
2022/02/04 00:46:24;;;;;;;25.93;22.40;;;;;;;;;;4993678;28;20221;-73
2022/02/04 00:49:01;;;;;;;27.63;23.20;;;;;;;;;;4965131;28;20609;-73
2022/02/04 00:54:14;;;;;;;29.20;23.63;;;;;;;;;;4959996;28;20317;-72
2022/02/04 01:26:39;;;;;;;30.10;24.40;;;;;;;;;;4977239;28;20228;-74
2022/02/04 01:29:13;;;;;;;32.83;25.93;;;;;;;;;;4990524;28;20225;-73
2022/02/04 01:31:38;;;;;;;30.73;25.40;;;;;;;;;;4990211;28;20601;-73
2022/02/04 01:34:04;;;;;;;32.87;26.03;;;;;;;;;;4958524;28;20217;-73
2022/02/04 01:36:29;;;;;;;32.70;26.07;;;;;;;;;;4958135;28;20221;-73
2022/02/04 01:38:57;;;;;;;32.10;26.57;;;;;;;;;;4991063;28;20609;-73
2022/02/04 01:41:26;;;;;;;32.33;24.97;;;;;;;;;;4973923;28;20220;-73
2022/02/04 01:43:54;;;;;;;34.47;26.47;;;;;;;;;;4991201;28;20758;-74
2022/02/04 01:46:24;;;;;;;31.93;26.30;;;;;;;;;;4974123;28;20679;-73
2022/02/04 01:48:52;;;;;;;33.43;24.87;;;;;;;;;;4955313;28;20222;-73
2022/02/04 01:51:27;;;;;;;32.07;25.87;;;;;;;;;;4954986;28;20247;-74
2022/02/04 01:53:55;;;;;;;35.50;27.20;;;;;;;;;;4974000;28;20225;-73
2022/02/04 01:56:22;;;;;;;32.73;26.10;;;;;;;;;;4990347;28;21037;-73
2022/02/04 01:58:50;;;;;;;31.53;26.23;;;;;;;;;;4974414;28;20308;-72
2022/02/04 02:01:19;;;;;;;32.60;25.83;;;;;;;;;;4989791;28;20654;-74
2022/02/04 02:03:44;;;;;;;31.73;25.87;;;;;;;;;;4974661;28;20221;-75
2022/02/04 02:06:11;;;;;;;31.30;25.77;;;;;;;;;;4946399;28;20776;-74
2022/02/04 02:08:40;;;;;;;31.93;25.17;;;;;;;;;;4974378;28;20707;-73
2022/02/04 02:11:10;;;;;;;33.13;26.03;;;;;;;;;;4974180;28;20237;-73
2022/02/04 02:13:49;;;;;;;30.37;25.47;;;;;;;;;;4990351;28;20683;-74
2022/02/04 02:16:41;;;;;;;31.67;25.90;;;;;;;;;;4974688;28;20666;-73
2022/02/04 02:44:36;;;;;;;33.33;26.13;;;;;;;;;;4977122;28;20231;-71
2022/02/04 02:49:45;;;;;;;33.67;26.33;;;;;;;;;;4993877;28;20225;-74
2022/02/04 02:52:27;;;;;;;32.57;25.73;;;;;;;;;;4993505;28;20221;-72
2022/02/04 03:00:54;;;;;;;32.83;25.00;;;;;;;;;;4980806;28;20225;-72
2022/02/04 03:03:23;;;;;;;35.17;26.57;;;;;;;;;;4962244;28;20229;-73
2022/02/04 03:05:51;;;;;;;37.57;27.10;;;;;;;;;;4977187;28;20238;-72
2022/02/04 03:08:17;;;;;;;32.47;25.90;;;;;;;;;;4960544;28;20255;-73
2022/02/04 03:10:45;;;;;;;31.40;25.83;;;;;;;;;;4993746;28;20228;-73
2022/02/04 03:13:13;;;;;;;33.77;26.67;;;;;;;;;;4993099;28;20222;-72
2022/02/04 03:15:43;;;;;;;32.90;25.23;;;;;;;;;;4977541;28;20221;-72
2022/02/04 03:18:20;;;;;;;30.23;25.40;;;;;;;;;;4976478;28;20272;-73
2022/02/04 03:20:54;;;;;;;33.83;25.57;;;;;;;;;;4962473;28;20233;-73
2022/02/04 03:23:24;;;;;;;33.00;25.63;;;;;;;;;;4992271;28;20703;-73
2022/02/04 03:25:58;;;;;;;34.83;26.97;;;;;;;;;;4979011;28;20217;-72
2022/02/04 03:28:30;;;;;;;34.03;26.20;;;;;;;;;;4985883;28;20236;-72
2022/02/04 03:30:59;;;;;;;34.03;27.53;;;;;;;;;;4955170;28;20244;-72
2022/02/04 03:33:29;;;;;;;31.87;25.30;;;;;;;;;;4984549;28;20635;-73
2022/02/04 03:35:55;;;;;;;33.83;26.70;;;;;;;;;;5001520;28;20232;-73
2022/02/04 03:38:23;;;;;;;34.00;25.53;;;;;;;;;;4977417;28;20221;-74
2022/02/04 03:40:51;;;;;;;32.87;25.97;;;;;;;;;;4994885;28;20228;-74
2022/02/04 03:43:16;;;;;;;35.77;27.13;;;;;;;;;;4977869;28;20229;-71
2022/02/04 03:45:42;;;;;;;32.10;26.10;;;;;;;;;;4993527;28;20228;-74
2022/02/04 03:48:07;;;;;;;30.57;24.90;;;;;;;;;;4993366;28;20307;-73
2022/02/04 03:50:40;;;;;;;33.63;25.63;;;;;;;;;;4977023;28;20222;-72
2022/02/04 03:53:15;;;;;;;31.57;24.63;;;;;;;;;;4960841;28;20232;-73
2022/02/04 03:55:43;;;;;;;36.40;25.97;;;;;;;;;;4976188;28;20220;-72
2022/02/04 03:58:11;;;;;;;32.20;24.47;;;;;;;;;;4976430;28;20237;-73
2022/02/04 04:00:39;;;;;;;34.33;25.30;;;;;;;;;;4976591;28;20234;-73
2022/02/04 04:03:07;;;;;;;32.80;24.93;;;;;;;;;;4992402;28;20229;-74
2022/02/04 04:05:36;;;;;;;31.00;25.03;;;;;;;;;;4958647;28;20226;-74
2022/02/04 04:08:01;;;;;;;33.57;25.33;;;;;;;;;;4989865;28;20224;-73
2022/02/04 04:10:36;;;;;;;33.90;25.53;;;;;;;;;;4979375;28;20609;-74
2022/02/04 04:13:06;;;;;;;33.50;25.53;;;;;;;;;;5050317;23;20718;-72
2022/02/04 04:15:34;;;;;;;31.77;25.30;;;;;;;;;;4991834;28;20711;-72
2022/02/04 04:18:02;;;;;;;31.03;24.77;;;;;;;;;;5007985;28;20213;-72
2022/02/04 04:20:30;;;;;;;32.37;24.40;;;;;;;;;;5023482;28;20260;-72
2022/02/04 04:22:56;;;;;;;32.83;24.93;;;;;;;;;;5031805;28;20247;-72
2022/02/04 04:25:24;;;;;;;31.73;24.97;;;;;;;;;;5024974;28;20307;-72
2022/02/04 04:27:52;;;;;;;32.03;24.73;;;;;;;;;;5000621;28;20228;-73
2022/02/04 04:30:21;;;;;;;27.93;23.90;;;;;;;;;;5023605;28;20207;-73
2022/02/04 04:32:47;;;;;;;30.83;24.63;;;;;;;;;;5018630;28;20219;-73
2022/02/04 04:35:16;;;;;;;31.63;24.27;;;;;;;;;;5030227;28;20219;-71
2022/02/04 04:42:54;;;;;;;30.47;24.37;;;;;;;;;;5017299;28;20713;-73
2022/02/04 05:26:59;;;;;;;31.67;24.00;;;;;;;;;;5009534;28;20221;-73
2022/02/04 05:29:20;;;;;;;31.20;23.67;;;;;;;;;;4998796;28;20240;-73
2022/02/04 05:31:48;;;;;;;30.37;22.97;;;;;;;;;;4994509;28;20229;-73
2022/02/04 05:34:19;;;;;;;32.87;24.53;;;;;;;;;;5027754;28;20231;-74
2022/02/04 05:36:47;;;;;;;29.53;24.70;;;;;;;;;;5022741;28;20227;-74
2022/02/04 05:39:26;;;;;;;28.53;23.17;;;;;;;;;;4995048;28;20220;-73
2022/02/04 05:41:51;;;;;;;31.87;24.83;;;;;;;;;;5029024;28;20248;-74
2022/02/04 05:44:22;;;;;;;31.97;25.17;;;;;;;;;;5012924;28;20216;-70
2022/02/04 05:47:03;;;;;;;30.67;23.93;;;;;;;;;;5002276;28;20266;-73
2022/02/04 05:49:34;;;;;;;30.60;24.20;;;;;;;;;;5014645;28;20224;-72
2022/02/04 05:52:15;;;;;;;31.23;25.20;;;;;;;;;;5042433;28;20219;-72
2022/02/04 05:57:22;;;;;;;30.57;24.23;;;;;;;;;;5032431;28;20223;-71
2022/02/04 06:05:20;;;;;;;30.60;23.37;;;;;;;;;;5017120;28;20228;-73
2022/02/04 06:08:32;;;;;;;30.03;24.43;;;;;;;;;;5013121;28;20242;-73
2022/02/04 06:24:24;;;;;;;29.57;24.27;;;;;;;;;;4946320;28;20217;-73
2022/02/04 06:26:51;;;;;;;30.10;24.83;;;;;;;;;;5011634;28;20719;-74
2022/02/04 06:29:19;;;;;;;35.77;27.30;;;;;;;;;;5032860;28;20243;-72
2022/02/04 06:31:45;;;;;;;31.37;26.07;;;;;;;;;;5027276;28;20619;-74
2022/02/04 06:34:11;;;;;;;33.57;27.03;;;;;;;;;;5025151;28;20225;-73
2022/02/04 06:36:36;;;;;;;34.47;27.17;;;;;;;;;;5013023;28;20212;-72
2022/02/04 06:39:09;;;;;;;32.70;26.13;;;;;;;;;;5029549;28;20582;-72
2022/02/04 06:41:37;;;;;;;33.43;26.90;;;;;;;;;;5011538;28;20319;-71
2022/02/04 06:44:06;;;;;;;34.30;27.17;;;;;;;;;;5012345;28;20236;-72
2022/02/04 06:46:31;;;;;;;33.27;26.27;;;;;;;;;;5014409;28;20246;-73
2022/02/04 06:48:57;;;;;;;33.00;27.27;;;;;;;;;;5016656;28;20207;-72
2022/02/04 06:51:25;;;;;;;32.60;26.33;;;;;;;;;;4995123;28;20221;-73
2022/02/04 06:53:53;;;;;;;33.37;27.20;;;;;;;;;;5015661;28;20698;-72
2022/02/04 06:56:18;;;;;;;33.77;27.17;;;;;;;;;;5028868;28;20216;-72
2022/02/04 06:58:44;;;;;;;31.93;26.43;;;;;;;;;;5030804;28;20657;-72
2022/02/04 07:01:09;;;;;;;32.13;27.43;;;;;;;;;;5032109;28;20247;-72
2022/02/04 07:03:37;;;;;;;32.40;26.67;;;;;;;;;;5014168;28;20231;-73
2022/02/04 07:06:10;;;;;;;33.93;26.90;;;;;;;;;;5025431;28;20216;-70
2022/02/04 07:21:34;;;;;;;33.13;27.30;;;;;;;;;;5023256;28;20228;-72
2022/02/04 07:24:00;;;;;;;30.30;25.60;;;;;;;;;;5029104;28;20216;-71
2022/02/04 07:26:32;;;;;;;32.13;25.90;;;;;;;;;;5030346;28;20216;-70
2022/02/04 07:29:00;;;;;;;32.63;25.17;;;;;;;;;;5029679;28;20303;-72
2022/02/04 07:31:32;;;;;;;32.23;24.90;;;;;;;;;;5034150;28;20299;-72
2022/02/04 07:34:18;;;;;;;30.43;24.90;;;;;;;;;;5042402;28;20220;-72
2022/02/04 07:42:00;;;;;;;31.03;24.50;;;;;;;;;;5033762;28;20224;-71
2022/02/04 07:44:27;;;;;;;31.40;25.50;;;;;;;;;;5034423;28;20227;-72
2022/02/04 07:46:53;;;;;;;29.73;24.93;;;;;;;;;;5019783;28;20216;-72
2022/02/04 07:49:20;;;;;;;30.57;26.00;;;;;;;;;;5035890;28;20681;-72
2022/02/04 07:51:56;;;;;;;30.97;25.90;;;;;;;;;;5030717;28;20713;-72
2022/02/04 07:54:21;;;;;;;31.87;26.10;;;;;;;;;;5046287;28;20223;-72
2022/02/04 07:56:47;;;;;;;31.73;26.23;;;;;;;;;;4996888;28;20628;-72
2022/02/04 07:59:15;;;;;;;34.37;27.03;;;;;;;;;;5015530;28;20232;-73
2022/02/04 08:01:40;;;;;;;30.20;25.83;;;;;;;;;;4997767;28;20216;-72
2022/02/04 08:04:17;;;;;;;32.17;26.77;;;;;;;;;;5009484;28;20896;-75
2022/02/04 08:06:56;;;;;;;34.63;27.20;;;;;;;;;;5033122;28;20220;-73
2022/02/04 08:09:36;;;;;;;32.43;25.80;;;;;;;;;;5008355;28;20207;-73
2022/02/04 08:12:26;;;;;;;31.63;25.60;;;;;;;;;;5020642;28;20238;-73
2022/02/04 08:15:05;;;;;;;31.20;26.37;;;;;;;;;;5005387;28;20230;-72
2022/02/04 08:17:55;;;;;;;32.40;26.80;;;;;;;;;;5032185;28;20314;-72
2022/02/04 08:54:44;;;;;;;30.30;26.00;;;;;;;;;;5039406;28;20226;-72
2022/02/04 09:00:33;;;;;;;32.50;24.87;;;;;;;;;;5019623;28;20232;-72
2022/02/04 09:02:53;;;;;;;31.47;26.30;;;;;;;;;;5007772;28;20220;-72
2022/02/04 09:05:18;;;;;;;31.00;26.53;;;;;;;;;;5027322;28;20231;-72
2022/02/04 09:10:22;;;;;;;28.27;25.00;;;;;;;;;;5026894;28;20592;-73
2022/02/04 09:21:09;;;;;;;31.43;25.30;;;;;;;;;;5036333;28;20335;-71
2022/02/04 09:23:27;;;;;;;26.93;23.60;;;;;;;;;;5014866;28;20215;-71
2022/02/04 09:25:53;;;;;;;26.13;23.17;;;;;;;;;;5029896;28;20229;-72
2022/02/04 09:28:23;;;;;;;26.37;22.53;;;;;;;;;;5033127;28;20234;-72
2022/02/04 09:30:51;;;;;;;25.97;23.13;;;;;;;;;;5015345;28;20870;-72
2022/02/04 09:33:19;;;;;;;24.60;22.10;;;;;;;;;;5011069;28;20231;-72
2022/02/04 09:35:45;;;;;;;25.33;22.40;;;;;;;;;;5024911;28;20228;-73
2022/02/04 09:38:10;;;;;;;25.00;22.30;;;;;;;;;;5029523;28;20228;-72
2022/02/04 09:40:39;;;;;;;23.70;20.43;;;;;;;;;;5032596;28;20224;-73
2022/02/04 09:43:05;;;;;;;23.77;21.20;;;;;;;;;;5013046;28;20226;-72
2022/02/04 09:45:33;;;;;;;22.83;20.30;;;;;;;;;;5040294;28;20223;-72
2022/02/04 09:48:07;;;;;;;22.80;20.03;;;;;;;;;;5049745;28;20251;-72
2022/02/04 09:50:34;;;;;;;22.43;20.03;;;;;;;;;;5024059;28;20273;-72
2022/02/04 10:12:50;;;;;;;20.43;18.33;;;;;;;;;;5013150;28;20220;-73
2022/02/04 10:15:25;;;;;;;19.67;17.67;;;;;;;;;;5034005;28;20251;-73
2022/02/04 10:18:16;;;;;;;18.77;16.97;;;;;;;;;;5050217;28;20225;-71
2022/02/04 10:20:42;;;;;;;20.10;17.37;;;;;;;;;;5026605;28;20255;-72
2022/02/04 10:23:07;;;;;;;17.80;15.97;;;;;;;;;;5013539;28;20220;-74
2022/02/04 10:25:35;;;;;;;18.63;16.63;;;;;;;;;;5019255;28;20696;-71
2022/02/04 10:28:04;;;;;;;17.23;15.43;;;;;;;;;;5018464;28;20731;-72
2022/02/04 10:30:32;;;;;;;16.17;14.17;;;;;;;;;;5014343;28;20690;-72
2022/02/04 10:33:00;;;;;;;17.63;15.73;;;;;;;;;;4997143;28;20255;-72
2022/02/04 10:35:35;;;;;;;16.53;14.77;;;;;;;;;;5015116;28;20216;-72
2022/02/04 10:38:27;;;;;;;16.00;14.50;;;;;;;;;;5040667;28;20250;-73
2022/02/04 10:41:05;;;;;;;15.60;14.07;;;;;;;;;;5035375;28;20219;-73
2022/02/04 10:46:26;;;;;;;15.87;14.27;;;;;;;;;;5042589;28;20220;-72
2022/02/04 10:49:40;;;;;;;14.47;13.07;;;;;;;;;;5030224;28;20300;-73
2022/02/04 10:58:16;;;;;;;14.23;12.80;;;;;;;;;;4939411;28;20237;-72
2022/02/04 11:03:26;;;;;;;14.67;12.33;;;;;;;;;;4999640;28;20242;-72
2022/02/04 11:06:09;;;;;;;12.27;11.07;;;;;;;;;;5006256;28;20610;-74
2022/02/04 11:08:55;;;;;;;14.10;12.70;;;;;;;;;;5010621;28;20220;-72
2022/02/04 11:11:50;;;;;;;12.50;11.20;;;;;;;;;;5021379;28;20228;-72
2022/02/04 11:36:25;;;;;;;8.83;8.00;;;;;;;;;;5030746;28;20223;-73
2022/02/04 11:54:59;;;;;;;6.63;5.97;;;;;;;;;;5061058;28;20219;-71
2022/02/04 11:57:28;;;;;;;6.67;6.07;;;;;;;;;;4997189;28;20212;-73
2022/02/04 11:59:56;;;;;;;6.23;5.53;;;;;;;;;;5012398;28;20240;-74
2022/02/04 12:02:24;;;;;;;6.63;5.97;;;;;;;;;;4983779;28;20738;-73
2022/02/04 12:05:21;;;;;;;6.27;5.67;;;;;;;;;;5033948;28;20319;-73
2022/02/04 12:08:15;;;;;;;5.63;5.23;;;;;;;;;;5008300;28;20303;-72
2022/02/04 12:10:46;;;;;;;6.03;5.43;;;;;;;;;;5015553;28;20232;-73
2022/02/04 12:13:12;;;;;;;6.50;5.10;;;;;;;;;;5028121;28;20277;-73
2022/02/04 12:15:41;;;;;;;5.70;5.10;;;;;;;;;;5051672;28;20219;-73
2022/02/04 12:18:13;;;;;;;5.00;4.53;;;;;;;;;;5023688;28;20244;-71
2022/02/04 12:20:47;;;;;;;4.20;3.90;;;;;;;;;;5031767;28;20605;-72
2022/02/04 12:23:41;;;;;;;4.60;4.20;;;;;;;;;;5041655;28;20310;-73
2022/02/04 12:26:09;;;;;;;4.13;3.80;;;;;;;;;;5052400;28;20713;-74
2022/02/04 12:29:02;;;;;;;5.30;3.70;;;;;;;;;;5037767;28;20224;-72
2022/02/04 12:31:30;;;;;;;4.43;3.77;;;;;;;;;;5030770;28;20219;-72
2022/02/04 12:34:12;;;;;;;4.07;3.40;;;;;;;;;;5031179;28;20212;-73
2022/02/04 12:36:39;;;;;;;5.07;3.83;;;;;;;;;;5027074;28;20588;-73
2022/02/04 12:39:06;;;;;;;3.70;3.40;;;;;;;;;;5048381;28;20223;-74
2022/02/04 12:41:47;;;;;;;3.80;3.50;;;;;;;;;;5034545;28;20219;-73
2022/02/04 12:44:16;;;;;;;3.47;3.13;;;;;;;;;;5015000;28;20270;-73
2022/02/04 12:46:48;;;;;;;3.37;3.07;;;;;;;;;;4998524;28;20706;-74
2022/02/04 12:49:19;;;;;;;3.20;2.90;;;;;;;;;;5031384;28;20615;-72
2022/02/04 12:54:30;;;;;;;2.80;2.60;;;;;;;;;;5000672;28;20212;-74
2022/02/04 13:10:31;;;;;;;3.67;3.00;;;;;;;;;;5012934;28;20238;-73
2022/02/04 13:12:57;;;;;;;3.00;2.70;;;;;;;;;;5016050;28;20228;-77
2022/02/04 13:15:22;;;;;;;3.00;2.70;;;;;;;;;;5033449;28;20293;-75
2022/02/04 13:17:52;;;;;;;4.30;2.43;;;;;;;;;;4996269;28;20213;-72
2022/02/04 13:20:21;;;;;;;2.57;2.37;;;;;;;;;;5013700;28;20231;-72
2022/02/04 13:22:58;;;;;;;2.50;2.00;;;;;;;;;;5014135;28;20294;-74
2022/02/04 13:25:34;;;;;;;3.00;2.27;;;;;;;;;;5015091;28;20230;-71
2022/02/04 13:28:00;;;;;;;4.47;2.67;;;;;;;;;;4997700;28;20216;-73
2022/02/04 13:30:27;;;;;;;2.80;2.60;;;;;;;;;;5028722;28;20358;-72
2022/02/04 13:32:55;;;;;;;2.90;2.67;;;;;;;;;;5027614;28;20200;-72
2022/02/04 13:35:24;;;;;;;2.60;2.40;;;;;;;;;;5028987;28;20212;-72
2022/02/04 13:37:55;;;;;;;5.30;2.70;;;;;;;;;;5013510;28;20334;-73
2022/02/04 13:40:31;;;;;;;4.17;2.60;;;;;;;;;;5031453;28;20242;-72
2022/02/04 13:43:04;;;;;;;3.07;2.30;;;;;;;;;;4997935;28;20224;-73
2022/02/04 13:45:37;;;;;;;4.03;2.80;;;;;;;;;;4999109;28;20713;-73
2022/02/04 13:48:16;;;;;;;3.10;2.50;;;;;;;;;;5029615;28;20317;-73
2022/02/04 13:51:07;;;;;;;2.77;2.40;;;;;;;;;;4977139;28;20694;-72
2022/02/04 13:53:38;;;;;;;2.90;2.30;;;;;;;;;;5014801;28;20220;-73
2022/02/04 13:56:29;;;;;;;2.90;2.60;;;;;;;;;;5028218;28;20224;-73
2022/02/04 13:59:14;;;;;;;2.43;2.27;;;;;;;;;;5007567;28;20323;-72
2022/02/04 14:01:53;;;;;;;2.70;2.50;;;;;;;;;;5020196;28;20302;-73
2022/02/04 14:04:23;;;;;;;2.80;2.60;;;;;;;;;;5014497;28;20250;-71
2022/02/04 14:06:48;;;;;;;2.93;2.73;;;;;;;;;;5004466;28;20238;-72
2022/02/04 14:09:18;;;;;;;3.37;3.00;;;;;;;;;;5012325;28;20678;-74
2022/02/04 14:11:44;;;;;;;3.57;3.37;;;;;;;;;;4978540;28;20221;-72
2022/02/04 14:14:10;;;;;;;4.00;3.70;;;;;;;;;;5012309;28;20227;-73
2022/02/04 14:16:41;;;;;;;4.17;3.83;;;;;;;;;;5029023;28;20235;-71
2022/02/04 14:19:07;;;;;;;4.40;4.10;;;;;;;;;;5012941;28;20322;-72
2022/02/04 14:21:38;;;;;;;4.90;4.43;;;;;;;;;;5028371;28;20231;-72
2022/02/04 14:24:11;;;;;;;4.90;4.30;;;;;;;;;;4979245;28;20263;-72
2022/02/04 14:26:45;;;;;;;4.60;4.20;;;;;;;;;;5010164;28;20231;-72
2022/02/04 14:29:26;;;;;;;5.00;4.30;;;;;;;;;;4998026;28;20216;-72
2022/02/04 14:32:01;;;;;;;4.50;4.07;;;;;;;;;;5024697;28;20751;-71
2022/02/04 14:37:34;;;;;;;4.30;3.93;;;;;;;;;;5031595;28;20254;-70
2022/02/04 14:51:42;;;;;;;5.00;4.60;;;;;;;;;;5048325;28;20231;-73
2022/02/04 14:54:03;;;;;;;5.00;4.67;;;;;;;;;;5054160;28;20281;-70
2022/02/04 15:02:06;;;;;;;5.17;4.77;;;;;;;;;;5027421;28;20216;-72
2022/02/04 15:07:04;;;;;;;5.23;4.83;;;;;;;;;;5031360;28;20219;-71
2022/02/04 15:09:33;;;;;;;5.30;4.90;;;;;;;;;;5033127;28;20239;-71
2022/02/04 15:11:58;;;;;;;5.60;4.47;;;;;;;;;;5030051;28;20223;-71
2022/02/04 15:14:24;;;;;;;4.13;3.80;;;;;;;;;;5014319;28;20299;-72
2022/02/04 15:16:49;;;;;;;4.60;4.10;;;;;;;;;;4995376;28;20743;-71
2022/02/04 15:19:21;;;;;;;3.83;3.30;;;;;;;;;;5013614;28;20217;-73
2022/02/04 15:21:54;;;;;;;3.50;3.23;;;;;;;;;;5015395;28;20300;-72
2022/02/04 15:24:24;;;;;;;3.20;2.90;;;;;;;;;;5015859;28;20243;-73
2022/02/04 15:26:51;;;;;;;3.50;3.20;;;;;;;;;;5033274;28;20248;-73
2022/02/04 15:29:18;;;;;;;3.67;3.37;;;;;;;;;;4999738;28;20208;-72
2022/02/04 15:31:55;;;;;;;2.97;2.77;;;;;;;;;;5013926;28;20239;-73
2022/02/04 15:34:23;;;;;;;3.40;2.70;;;;;;;;;;5030249;28;20705;-73
2022/02/04 15:36:49;;;;;;;2.87;2.67;;;;;;;;;;5007319;28;20304;-73
2022/02/04 15:39:19;;;;;;;2.87;2.57;;;;;;;;;;4997551;28;20217;-74
2022/02/04 15:41:51;;;;;;;2.60;2.40;;;;;;;;;;5003696;28;20287;-73
2022/02/04 15:49:52;;;;;;;2.63;2.23;;;;;;;;;;5028859;28;20211;-74
2022/02/04 16:05:21;;;;;;;2.40;2.20;;;;;;;;;;5011098;28;20211;-72
2022/02/04 16:07:51;;;;;;;2.00;1.90;;;;;;;;;;5011786;28;20647;-72
2022/02/04 16:12:59;;;;;;;2.07;1.97;;;;;;;;;;5032424;28;20229;-72
2022/02/04 16:17:56;;;;;;;2.30;2.10;;;;;;;;;;4994628;28;20220;-73
2022/02/04 16:20:49;;;;;;;2.27;2.13;;;;;;;;;;5026960;28;20227;-73
2022/02/04 16:23:24;;;;;;;2.33;2.03;;;;;;;;;;5029812;28;20331;-73
2022/02/04 16:28:41;;;;;;;2.30;2.10;;;;;;;;;;5004224;28;20216;-72
2022/02/04 16:31:14;;;;;;;2.60;2.40;;;;;;;;;;5010703;28;20232;-71
2022/02/04 16:33:42;;;;;;;2.30;2.10;;;;;;;;;;5014003;28;20216;-73
2022/02/04 16:36:14;;;;;;;2.33;2.13;;;;;;;;;;5014968;28;20713;-73
2022/02/04 16:38:45;;;;;;;2.10;2.00;;;;;;;;;;5003408;28;20298;-72
2022/02/04 16:41:13;;;;;;;2.10;2.00;;;;;;;;;;4990883;28;20790;-71
2022/02/04 16:43:40;;;;;;;2.50;2.30;;;;;;;;;;5014112;28;20338;-71
2022/02/04 16:46:09;;;;;;;2.83;2.50;;;;;;;;;;5024356;28;20853;-71
2022/02/04 16:48:36;;;;;;;2.93;2.63;;;;;;;;;;4998141;28;20238;-71
2022/02/04 16:51:10;;;;;;;2.67;2.20;;;;;;;;;;5021487;28;20595;-71
2022/02/04 16:53:37;;;;;;;10.90;8.37;;;;;;;;;;5030783;28;20358;-72
2022/02/04 16:56:03;;;;;;;4.80;4.40;;;;;;;;;;5011542;28;20228;-72
2022/02/04 16:58:31;;;;;;;4.23;3.70;;;;;;;;;;4997924;28;20227;-71
2022/02/04 17:00:58;;;;;;;3.47;3.17;;;;;;;;;;4997133;28;20224;-71
2022/02/04 17:03:23;;;;;;;3.33;2.83;;;;;;;;;;5012547;28;20224;-72
2022/02/04 17:05:53;;;;;;;3.13;2.93;;;;;;;;;;5030113;28;20228;-73
2022/02/04 17:08:36;;;;;;;2.90;2.70;;;;;;;;;;5017272;28;20243;-71
2022/02/04 17:11:08;;;;;;;5.63;3.20;;;;;;;;;;5010536;28;20278;-72
2022/02/04 17:13:40;;;;;;;4.17;3.50;;;;;;;;;;5024047;28;20220;-72
2022/02/04 17:16:06;;;;;;;4.13;3.33;;;;;;;;;;5009951;28;20248;-72
2022/02/04 17:18:36;;;;;;;3.97;3.47;;;;;;;;;;5031536;28;20226;-71
2022/02/04 17:21:02;;;;;;;4.37;3.77;;;;;;;;;;4998290;28;20224;-72
2022/02/04 17:23:45;;;;;;;5.30;3.33;;;;;;;;;;5048743;28;20588;-71
2022/02/04 17:26:15;;;;;;;4.20;3.80;;;;;;;;;;5029524;28;20294;-72
2022/02/04 17:28:41;;;;;;;7.13;4.37;;;;;;;;;;5028788;28;20228;-73
2022/02/04 17:31:07;;;;;;;4.90;4.53;;;;;;;;;;5009600;28;20231;-72
2022/02/04 17:33:34;;;;;;;4.87;4.37;;;;;;;;;;5010571;28;20239;-72
2022/02/04 17:36:00;;;;;;;4.70;4.30;;;;;;;;;;5010980;28;20231;-73
2022/02/04 17:38:26;;;;;;;4.97;4.57;;;;;;;;;;5028618;28;20216;-72
2022/02/04 17:40:54;;;;;;;5.70;5.17;;;;;;;;;;5010908;28;20232;-72
2022/02/04 17:43:19;;;;;;;5.77;5.27;;;;;;;;;;5024731;28;20590;-71
2022/02/04 17:45:45;;;;;;;5.80;5.27;;;;;;;;;;5026990;28;20764;-71
2022/02/04 17:48:21;;;;;;;6.03;5.53;;;;;;;;;;4973838;28;20312;-72
2022/02/04 17:53:49;;;;;;;6.17;5.67;;;;;;;;;;4996701;28;20224;-72
2022/02/04 17:56:39;;;;;;;6.10;5.43;;;;;;;;;;5026383;28;20223;-72
2022/02/04 17:59:47;;;;;;;5.70;5.20;;;;;;;;;;5026340;28;20227;-71
2022/02/04 18:02:13;;;;;;;2.93;2.67;;;;;;;;;;5034649;28;20618;-73
2022/02/04 18:07:26;;;;;;;1.07;1.03;;;;;;;;;;5025502;28;20232;-71
2022/02/04 18:09:51;;;;;;;0.93;0.93;;;;;;;;;;5025106;28;21726;-70
2022/02/04 18:12:31;;;;;;;1.40;1.00;;;;;;;;;;5025001;28;20307;-72
2022/02/04 18:14:57;;;;;;;0.83;0.83;;;;;;;;;;4994191;28;20227;-70
2022/02/04 18:17:25;;;;;;;1.27;1.07;;;;;;;;;;5016674;28;20603;-72
2022/02/04 18:19:50;;;;;;;1.17;1.00;;;;;;;;;;4993385;28;20221;-71
2022/02/04 18:22:16;;;;;;;0.87;0.83;;;;;;;;;;5026453;28;20378;-70
2022/02/04 18:24:42;;;;;;;1.60;1.50;;;;;;;;;;5001820;28;20217;-71
2022/02/04 18:27:08;;;;;;;1.70;1.60;;;;;;;;;;4990353;28;20223;-72
2022/02/04 18:29:40;;;;;;;1.60;1.50;;;;;;;;;;4993739;28;20234;-70
2022/02/04 18:32:08;;;;;;;1.43;1.33;;;;;;;;;;5024871;28;20227;-71
2022/02/04 18:34:34;;;;;;;2.43;2.23;;;;;;;;;;4996023;28;20260;-72
2022/02/04 18:37:02;;;;;;;2.30;1.40;;;;;;;;;;5019734;28;20224;-70
2022/02/04 18:44:42;;;;;;;1.67;1.57;;;;;;;;;;4996963;28;20213;-72
2022/02/04 18:47:23;;;;;;;1.33;1.23;;;;;;;;;;4996636;28;20230;-71
2022/02/04 18:49:58;;;;;;;1.77;1.67;;;;;;;;;;4979800;28;20221;-72
2022/02/04 18:57:56;;;;;;;1.57;1.47;;;;;;;;;;4980613;28;20225;-72
2022/02/04 19:00:27;;;;;;;1.70;1.60;;;;;;;;;;4978757;28;20225;-68
2022/02/04 19:02:58;;;;;;;1.50;1.17;;;;;;;;;;5015731;28;20248;-71
2022/02/04 19:05:29;;;;;;;1.23;1.13;;;;;;;;;;4977331;28;20232;-70
2022/02/04 19:08:01;;;;;;;1.40;1.20;;;;;;;;;;4995755;28;20225;-71
2022/02/04 19:10:30;;;;;;;1.07;1.07;;;;;;;;;;5023246;28;20228;-73
2022/02/04 19:13:09;;;;;;;1.30;1.20;;;;;;;;;;4995100;28;20308;-73
2022/02/04 19:21:05;;;;;;;1.43;1.30;;;;;;;;;;5011852;28;20278;-73
2022/02/04 19:23:31;;;;;;;1.30;1.20;;;;;;;;;;4985457;28;20228;-72
2022/02/04 19:26:02;;;;;;;1.43;1.33;;;;;;;;;;4996979;28;20231;-73
2022/02/04 19:28:28;;;;;;;1.40;1.30;;;;;;;;;;5000516;28;20248;-73
2022/02/04 19:30:56;;;;;;;1.20;1.10;;;;;;;;;;4983098;28;20212;-74
2022/02/04 19:33:32;;;;;;;1.87;1.77;;;;;;;;;;5007164;28;20236;-73
2022/02/04 19:36:03;;;;;;;1.87;1.73;;;;;;;;;;4994611;28;20268;-72
2022/02/04 19:38:33;;;;;;;1.70;1.60;;;;;;;;;;4973284;28;20252;-73
2022/02/04 19:41:00;;;;;;;1.87;1.77;;;;;;;;;;4966145;28;20731;-72
2022/02/04 19:43:27;;;;;;;1.70;1.60;;;;;;;;;;4955802;28;20296;-73
2022/02/04 19:46:04;;;;;;;1.73;1.47;;;;;;;;;;4954478;28;20644;-74
2022/02/04 19:48:36;;;;;;;1.67;1.57;;;;;;;;;;4991355;28;20240;-72
2022/02/04 19:53:45;;;;;;;2.13;1.93;;;;;;;;;;4993444;28;20240;-72
2022/02/04 20:25:44;;;;;;;1.80;1.70;;;;;;;;;;4991020;28;20237;-73
2022/02/04 20:28:13;;;;;;;3.30;2.40;;;;;;;;;;4974408;28;20225;-72
2022/02/04 20:30:40;;;;;;;2.50;2.30;;;;;;;;;;4981698;28;20309;-73
2022/02/04 20:33:08;;;;;;;3.00;2.80;;;;;;;;;;4989953;28;20765;-73
2022/02/04 20:35:36;;;;;;;3.87;3.47;;;;;;;;;;4960376;28;20675;-72
2022/02/04 20:38:03;;;;;;;8.33;5.13;;;;;;;;;;4971509;28;20249;-72
2022/02/04 20:40:31;;;;;;;11.47;6.53;;;;;;;;;;4987174;28;20230;-74
2022/02/04 20:42:57;;;;;;;6.50;5.90;;;;;;;;;;4949137;28;20699;-73
2022/02/04 20:45:25;;;;;;;8.47;7.53;;;;;;;;;;5026946;28;20227;-72
2022/02/04 20:47:57;;;;;;;7.97;7.17;;;;;;;;;;4994776;28;20270;-73
2022/02/04 20:50:27;;;;;;;7.80;7.10;;;;;;;;;;5010253;28;20236;-73
2022/02/04 20:52:53;;;;;;;8.00;7.00;;;;;;;;;;4994232;28;20220;-73
2022/02/04 20:55:23;;;;;;;7.27;6.53;;;;;;;;;;4993476;28;20245;-73
2022/02/04 20:57:54;;;;;;;7.87;6.27;;;;;;;;;;4990991;28;20218;-71
2022/02/04 21:00:27;;;;;;;6.50;5.67;;;;;;;;;;4974442;28;20225;-72
2022/02/04 21:02:55;;;;;;;4.20;3.87;;;;;;;;;;5006057;28;20233;-73
2022/02/04 21:05:25;;;;;;;5.67;5.03;;;;;;;;;;4993816;28;20733;-72
2022/02/04 21:08:23;;;;;;;6.53;5.13;;;;;;;;;;4987566;28;20308;-72
2022/02/04 21:15:53;;;;;;;5.50;4.13;;;;;;;;;;5026506;28;20284;-74
2022/02/04 21:18:19;;;;;;;6.83;4.27;;;;;;;;;;5024956;28;20254;-73
2022/02/04 21:20:47;;;;;;;6.00;4.03;;;;;;;;;;5027565;28;20280;-74
2022/02/04 21:23:17;;;;;;;5.23;3.77;;;;;;;;;;4994440;28;20229;-74
2022/02/04 21:25:45;;;;;;;5.73;3.93;;;;;;;;;;5009471;28;20233;-71
2022/02/04 21:28:11;;;;;;;6.57;3.90;;;;;;;;;;4985169;28;20292;-74
2022/02/04 21:30:45;;;;;;;6.17;3.20;;;;;;;;;;4993210;28;20625;-73
2022/02/04 21:33:36;;;;;;;7.30;4.60;;;;;;;;;;5009535;28;20228;-73
2022/02/04 21:38:47;;;;;;;12.20;9.70;;;;;;;;;;5005818;28;20233;-73
2022/02/04 21:41:13;;;;;;;9.07;4.10;;;;;;;;;;5006295;28;20309;-72
2022/02/04 21:43:40;;;;;;;6.37;4.63;;;;;;;;;;5010278;28;20315;-72
2022/02/04 21:46:14;;;;;;;8.87;4.20;;;;;;;;;;5010309;28;20233;-72
2022/02/04 21:48:50;;;;;;;8.50;4.30;;;;;;;;;;4990954;28;20535;-73
2022/02/04 21:51:16;;;;;;;7.37;4.47;;;;;;;;;;4990376;28;20229;-72
2022/02/04 21:53:47;;;;;;;9.50;5.50;;;;;;;;;;4962207;28;20216;-73
2022/02/04 21:56:17;;;;;;;12.50;5.77;;;;;;;;;;4976996;28;20221;-73